Time;durP1;ratioP1;P1;durP2;ratioP2;P2;SDS_P1;SDS_P2;PMS_P1;PMS_P2;Temp;Humidity;BMP_temperature;BMP_pressure;BME280_temperature;BME280_humidity;BME280_pressure;Samples;Min_cycle;Max_cycle;Signal;HPM_P1;HPM_P2
2022/03/18 00:02:40;;;;;;;;;;;;;;;;;;;;;
2022/03/18 00:05:28;;;;;;;39.10;28.33;;;;;;;;;;5043130;28;20041;-57
2022/03/18 00:08:15;;;;;;;30.85;25.23;;;;;;;;;;5045874;28;20075;-57
2022/03/18 00:10:47;;;;;;;34.97;25.23;;;;;;;;;;5045764;28;20124;-57
2022/03/18 00:19:30;;;;;;;;;;;;;;;;;;;;;
2022/03/18 00:22:07;;;;;;;23.85;21.27;;;;;;;;;;5080166;28;20055;-57
2022/03/18 00:24:58;;;;;;;;;;;;;;;;;;;;;
2022/03/18 00:27:43;;;;;;;28.70;20.38;;;;;;;;;;5058396;28;20064;-57
2022/03/18 00:30:20;;;;;;;23.13;19.20;;;;;;;;;;5087646;28;20052;-57
2022/03/18 00:33:11;;;;;;;30.17;23.83;;;;;;;;;;5087371;28;20131;-56
2022/03/18 00:35:37;;;;;;;;;;;;;;;;;;5087956;28;20027;-57
2022/03/18 00:38:15;;;;;;;26.33;19.88;;;;;;;;;;5087423;28;19905;-57
2022/03/18 00:44:25;;;;;;;23.23;18.83;;;;;;;;;;5006193;28;20057;-57
2022/03/18 00:47:05;;;;;;;;;;;;;;;;;;;;;
2022/03/18 00:56:12;;;;;;;30.35;20.90;;;;;;;;;;5045166;28;20040;-58
2022/03/18 00:58:49;;;;;;;23.00;18.02;;;;;;;;;;5041333;28;20542;-57
2022/03/18 01:01:23;;;;;;;22.00;17.60;;;;;;;;;;5070591;28;20044;-55
2022/03/18 01:04:31;;;;;;;23.77;17.17;;;;;;;;;;5086136;28;20024;-57
2022/03/18 01:10:11;;;;;;;21.40;16.17;;;;;;;;;;5069131;28;20100;-57
2022/03/18 01:13:06;;;;;;;20.70;17.17;;;;;;;;;;5086778;28;20143;-57
2022/03/18 01:15:53;;;;;;;23.98;18.63;;;;;;;;;;5108398;28;20054;-56
2022/03/18 01:21:50;;;;;;;28.27;18.83;;;;;;;;;;5079421;28;20033;-57
2022/03/18 01:24:22;;;;;;;21.77;18.00;;;;;;;;;;5109224;28;20040;-57
2022/03/18 01:27:01;;;;;;;21.88;18.38;;;;;;;;;;5110699;28;20088;-57
2022/03/18 01:30:06;;;;;;;27.67;18.40;;;;;;;;;;5093041;28;20050;-56
2022/03/18 01:32:45;;;;;;;20.85;17.90;;;;;;;;;;5068690;28;20025;-57
2022/03/18 01:38:27;;;;;;;23.17;19.60;;;;;;;;;;5068579;28;20064;-57
2022/03/18 01:44:09;;;;;;;21.10;17.35;;;;;;;;;;5110442;28;20071;-57
2022/03/18 01:46:53;;;;;;;22.38;17.85;;;;;;;;;;5110797;28;20024;-56
2022/03/18 01:49:42;;;;;;;23.10;16.90;;;;;;;;;;5110830;28;20114;-56
2022/03/18 01:52:12;;;;;;;27.95;18.35;;;;;;;;;;5087050;28;20046;-56
2022/03/18 01:55:00;;;;;;;21.42;18.05;;;;;;;;;;5110358;28;20028;-56
2022/03/18 01:57:59;;;;;;;20.67;16.35;;;;;;;;;;5110770;28;20028;-57
2022/03/18 02:00:40;;;;;;;21.05;18.08;;;;;;;;;;5068276;28;20053;-57
2022/03/18 02:03:25;;;;;;;23.90;16.90;;;;;;;;;;5086978;28;20047;-57
2022/03/18 02:05:55;;;;;;;18.42;14.70;;;;;;;;;;5110392;28;20062;-57
2022/03/18 02:08:40;;;;;;;23.33;17.35;;;;;;;;;;5110614;28;20028;-56
2022/03/18 02:14:09;;;;;;;21.92;16.33;;;;;;;;;;5109776;28;20063;-57
2022/03/18 02:17:06;;;;;;;21.42;16.70;;;;;;;;;;5110241;28;20028;-57
2022/03/18 02:19:55;;;;;;;18.15;16.27;;;;;;;;;;5109666;28;20121;-57
2022/03/18 02:22:58;;;;;;;18.52;16.42;;;;;;;;;;5103369;28;20032;-57
2022/03/18 02:28:57;;;;;;;23.08;16.80;;;;;;;;;;5088162;28;20028;-57
2022/03/18 02:31:38;;;;;;;21.08;16.33;;;;;;;;;;5091603;28;20036;-56
2022/03/18 02:37:33;;;;;;;23.77;16.10;;;;;;;;;;5027743;28;20053;-57
2022/03/18 02:45:56;;;;;;;21.45;16.30;;;;;;;;;;5109655;28;20026;-57
2022/03/18 02:48:30;;;;;;;23.13;17.13;;;;;;;;;;5109448;28;20028;-56
2022/03/18 02:54:06;;;;;;;15.70;11.40;;;;;;;;;;5095013;28;20072;-58
2022/03/18 02:56:52;;;;;;;22.63;15.95;;;;;;;;;;5109617;28;20102;-57
2022/03/18 02:59:44;;;;;;;22.98;15.98;;;;;;;;;;5109195;28;20071;-56
2022/03/18 03:14:10;;;;;;;24.42;16.75;;;;;;;;;;5099214;28;20056;-57
2022/03/18 03:16:37;;;;;;;25.95;19.10;;;;;;;;;;5109341;28;20092;-57
2022/03/18 03:19:33;;;;;;;23.95;17.58;;;;;;;;;;5109116;28;20028;-57
2022/03/18 03:22:10;;;;;;;22.88;16.15;;;;;;;;;;5066744;28;20044;-58
2022/03/18 03:24:40;;;;;;;22.52;16.15;;;;;;;;;;5066778;28;20438;-56
2022/03/18 03:33:55;;;;;;;24.20;16.40;;;;;;;;;;4967680;28;20118;-56
2022/03/18 03:39:15;;;;;;;21.55;16.35;;;;;;;;;;5065196;28;20066;-57
2022/03/18 03:51:47;;;;;;;20.55;16.27;;;;;;;;;;5108053;28;20091;-58
2022/03/18 04:00:17;;;;;;;22.52;14.70;;;;;;;;;;5108758;28;20043;-57
2022/03/18 04:13:00;;;;;;;23.95;16.92;;;;;;;;;;5065900;28;20035;-57
2022/03/18 04:15:31;;;;;;;25.27;16.00;;;;;;;;;;5107117;28;20083;-56
2022/03/18 04:18:29;;;;;;;23.15;16.67;;;;;;;;;;5107201;28;20034;-57
2022/03/18 04:21:05;;;;;;;19.10;14.88;;;;;;;;;;5100943;28;20055;-56
2022/03/18 04:24:15;;;;;;;;;;;;;;;;;;;;;
2022/03/18 04:27:19;;;;;;;24.88;15.93;;;;;;;;;;5108022;28;20059;-57
2022/03/18 04:30:05;;;;;;;26.30;17.67;;;;;;;;;;5105741;28;20047;-55
2022/03/18 04:32:38;;;;;;;22.20;14.82;;;;;;;;;;5095821;28;20024;-56
2022/03/18 04:35:51;;;;;;;;;;;;;;;;;;;;;
2022/03/18 04:42:44;;;;;;;;;;;;;;;;;;;;;
2022/03/18 04:44:47;;;;;;;22.45;15.63;;;;;;;;;;5083348;28;20036;-56
2022/03/18 04:50:33;;;;;;;;;;;;;;;;;;;;;
2022/03/18 04:56:05;;;;;;;21.23;16.58;;;;;;;;;;5066126;28;20078;-56
2022/03/18 04:59:22;;;;;;;26.60;18.33;;;;;;;;;;5062510;28;20068;-57
2022/03/18 05:01:58;;;;;;;24.73;17.45;;;;;;;;;;5075354;28;20062;-57
2022/03/18 05:04:24;;;;;;;19.10;15.43;;;;;;;;;;5097816;28;20039;-56
2022/03/18 05:07:04;;;;;;;23.27;17.60;;;;;;;;;;5097943;28;20038;-57
2022/03/18 05:09:53;;;;;;;20.55;16.15;;;;;;;;;;5096651;28;20036;-54
2022/03/18 05:12:39;;;;;;;22.52;14.95;;;;;;;;;;5098373;28;20024;-55
2022/03/18 05:18:36;;;;;;;24.20;16.52;;;;;;;;;;5098353;28;20493;-55
2022/03/18 05:21:28;;;;;;;23.05;16.08;;;;;;;;;;5103616;28;20029;-58
2022/03/18 05:30:26;;;;;;;22.77;17.52;;;;;;;;;;5082085;28;20549;-56
2022/03/18 05:42:58;;;;;;;;;;;;;;;;;;;;;
2022/03/18 05:48:56;;;;;;;21.27;16.40;;;;;;;;;;5050648;28;20088;-56
2022/03/18 05:55:14;;;;;;;28.88;17.00;;;;;;;;;;5013890;28;20401;-57
2022/03/18 05:57:58;;;;;;;24.90;19.15;;;;;;;;;;5014031;28;20234;-57
2022/03/18 06:00:41;;;;;;;26.58;17.25;;;;;;;;;;5013741;28;20122;-57
2022/03/18 06:03:25;;;;;;;23.50;17.80;;;;;;;;;;4999786;28;20042;-56
2022/03/18 06:06:00;;;;;;;25.02;16.73;;;;;;;;;;4998958;28;20185;-57
2022/03/18 06:14:20;;;;;;;25.75;18.20;;;;;;;;;;5053509;28;20051;-57
2022/03/18 06:16:53;;;;;;;25.60;18.38;;;;;;;;;;5026916;28;20470;-57
2022/03/18 06:19:46;;;;;;;27.13;19.08;;;;;;;;;;5018030;28;20057;-57
2022/03/18 06:22:35;;;;;;;20.63;16.02;;;;;;;;;;5032893;28;20022;-56
2022/03/18 06:25:06;;;;;;;23.90;17.70;;;;;;;;;;5008001;28;20578;-55
2022/03/18 06:27:51;;;;;;;23.40;16.45;;;;;;;;;;5016082;28;20091;-57
2022/03/18 06:30:32;;;;;;;24.38;18.88;;;;;;;;;;5034085;28;20168;-57
2022/03/18 06:33:09;;;;;;;;;;;;;;;;;;5032968;28;20462;-57
2022/03/18 06:35:38;;;;;;;23.88;17.83;;;;;;;;;;5017029;28;19905;-58
2022/03/18 06:38:15;;;;;;;;;;;;;;;;;;;;;
2022/03/18 06:40:59;;;;;;;30.20;19.25;;;;;;;;;;5076092;28;20031;-56
2022/03/18 06:43:32;;;;;;;24.83;17.92;;;;;;;;;;5059496;28;20462;-56
2022/03/18 06:46:23;;;;;;;25.52;19.23;;;;;;;;;;5057089;28;20086;-57
2022/03/18 06:48:55;;;;;;;24.45;17.63;;;;;;;;;;5057444;28;20042;-58
2022/03/18 06:51:28;;;;;;;29.13;20.05;;;;;;;;;;5075874;28;20458;-58
2022/03/18 06:54:50;;;;;;;;;;;;;;;;;;;;;
2022/03/18 06:57:27;;;;;;;;;;;;;;;;;;;;;
2022/03/18 07:03:12;;;;;;;25.05;16.67;;;;;;;;;;5008819;28;20030;-58
2022/03/18 07:08:54;;;;;;;25.85;17.80;;;;;;;;;;5013447;28;20068;-58
2022/03/18 07:11:48;;;;;;;22.58;17.42;;;;;;;;;;4975874;28;20650;-58
2022/03/18 07:23:25;;;;;;;31.20;20.35;;;;;;;;;;5095277;28;20047;-58
2022/03/18 07:26:18;;;;;;;24.23;17.60;;;;;;;;;;5076548;28;20036;-57
2022/03/18 07:31:55;;;;;;;26.63;21.80;;;;;;;;;;5074640;28;20036;-57
2022/03/18 07:34:33;;;;;;;35.58;21.95;;;;;;;;;;5077532;28;20036;-57
2022/03/18 07:37:47;;;;;;;;;;;;;;;;;;;;;
2022/03/18 07:40:20;;;;;;;32.92;21.80;;;;;;;;;;5033446;28;20120;-58
2022/03/18 07:43:14;;;;;;;31.00;22.65;;;;;;;;;;5021851;28;20037;-58
2022/03/18 07:49:01;;;;;;;29.48;23.52;;;;;;;;;;5068455;28;20032;-57
2022/03/18 07:51:59;;;;;;;31.88;22.95;;;;;;;;;;5077562;28;20032;-58
2022/03/18 07:57:44;;;;;;;35.63;25.13;;;;;;;;;;5083745;28;20115;-57
2022/03/18 08:01:27;;;;;;;33.63;25.80;;;;;;;;;;5075643;28;20496;-58
2022/03/18 08:03:59;;;;;;;36.25;24.52;;;;;;;;;;5071396;28;20078;-58
2022/03/18 08:06:50;;;;;;;27.67;21.55;;;;;;;;;;5094466;28;20107;-58
2022/03/18 08:09:55;;;;;;;30.17;23.60;;;;;;;;;;5094496;28;20035;-58
2022/03/18 08:12:52;;;;;;;;;;;;;;;;;;;;;
2022/03/18 08:15:39;;;;;;;41.70;26.77;;;;;;;;;;5042885;28;20056;-58
2022/03/18 08:21:26;;;;;;;34.33;25.27;;;;;;;;;;5050895;28;20037;-58
2022/03/18 08:24:12;;;;;;;;;;;;;;;;;;5035192;28;20029;-57
2022/03/18 08:30:24;;;;;;;32.70;22.50;;;;;;;;;;5018459;28;20036;-56
2022/03/18 08:39:47;;;;;;;33.08;27.50;;;;;;;;;;5089958;28;20047;-57
2022/03/18 08:42:57;;;;;;;33.05;24.77;;;;;;;;;;5093699;28;20081;-58
2022/03/18 08:45:29;;;;;;;34.05;24.38;;;;;;;;;;5082629;28;20039;-57
2022/03/18 08:51:47;;;;;;;42.38;26.38;;;;;;;;;;5010371;28;20048;-57
2022/03/18 08:54:51;;;;;;;30.60;22.75;;;;;;;;;;5010629;28;20522;-54
2022/03/18 08:57:31;;;;;;;35.25;25.63;;;;;;;;;;4971729;28;20058;-57
2022/03/18 09:00:05;;;;;;;33.42;23.92;;;;;;;;;;4955546;28;20058;-55
2022/03/18 09:03:05;;;;;;;38.22;26.63;;;;;;;;;;4955974;28;20061;-54
2022/03/18 09:08:32;;;;;;;;;;;;;;;;;;;;;
2022/03/18 09:14:15;;;;;;;;;;;;;;;;;;5051484;28;20564;-56
2022/03/18 09:17:10;;;;;;;23.75;18.63;;;;;;;;;;5071324;28;19999;-55
2022/03/18 09:22:45;;;;;;;31.70;21.02;;;;;;;;;;5069764;28;20052;-56
2022/03/18 09:25:41;;;;;;;33.30;21.83;;;;;;;;;;5093390;28;20035;-56
2022/03/18 09:28:10;;;;;;;28.55;21.38;;;;;;;;;;5094327;28;20024;-54
2022/03/18 09:31:11;;;;;;;25.67;19.98;;;;;;;;;;5091431;28;20534;-56
2022/03/18 09:33:46;;;;;;;24.77;19.58;;;;;;;;;;5095343;28;20415;-53
2022/03/18 09:36:31;;;;;;;26.63;19.13;;;;;;;;;;5097048;28;20024;-57
2022/03/18 09:39:13;;;;;;;24.98;18.75;;;;;;;;;;5096945;28;20111;-57
2022/03/18 09:42:17;;;;;;;23.55;18.95;;;;;;;;;;5074309;28;20385;-56
2022/03/18 09:48:00;;;;;;;23.88;18.13;;;;;;;;;;5060816;28;20028;-51
2022/03/18 09:50:58;;;;;;;30.30;19.08;;;;;;;;;;5075158;28;20517;-55
2022/03/18 09:54:07;;;;;;;21.33;15.05;;;;;;;;;;5075227;28;20395;-54
2022/03/18 09:56:56;;;;;;;;;;;;;;;;;;;;;
2022/03/18 09:59:30;;;;;;;26.83;18.50;;;;;;;;;;5060297;28;20021;-55
2022/03/18 10:02:20;;;;;;;22.88;17.73;;;;;;;;;;5078242;28;20033;-56
2022/03/18 10:05:06;;;;;;;33.92;20.58;;;;;;;;;;5075919;28;20021;-57
2022/03/18 10:07:52;;;;;;;25.88;19.15;;;;;;;;;;5073846;28;20040;-53
2022/03/18 10:10:25;;;;;;;25.48;18.38;;;;;;;;;;5074315;28;20064;-56
2022/03/18 10:13:22;;;;;;;27.02;18.52;;;;;;;;;;5057127;28;20359;-56
2022/03/18 10:19:03;;;;;;;18.90;13.90;;;;;;;;;;5033570;28;20521;-57
2022/03/18 10:22:06;;;;;;;24.73;18.63;;;;;;;;;;4955346;29;20035;-56
2022/03/18 10:24:56;;;;;;;30.90;17.30;;;;;;;;;;4969457;28;20033;-54
2022/03/18 10:27:37;;;;;;;28.13;18.85;;;;;;;;;;5033907;28;20041;-56
2022/03/18 10:30:27;;;;;;;26.70;20.48;;;;;;;;;;5016885;28;20034;-56
2022/03/18 10:42:58;;;;;;;24.48;18.67;;;;;;;;;;4994152;28;20030;-56
2022/03/18 10:45:30;;;;;;;21.20;17.38;;;;;;;;;;5031963;28;20030;-56
2022/03/18 10:51:21;;;;;;;25.77;20.92;;;;;;;;;;5064262;28;20070;-56
2022/03/18 10:53:55;;;;;;;23.05;18.60;;;;;;;;;;5074293;28;20490;-55
2022/03/18 10:56:40;;;;;;;24.60;19.88;;;;;;;;;;5057438;28;20486;-56
2022/03/18 10:59:27;;;;;;;25.70;19.02;;;;;;;;;;5058643;28;20021;-57
2022/03/18 11:02:15;;;;;;;23.65;20.00;;;;;;;;;;5076507;28;20099;-57
2022/03/18 11:04:59;;;;;;;28.13;19.95;;;;;;;;;;5074879;28;20029;-56
2022/03/18 11:14:10;;;;;;;;;;;;;;;;;;;;;
2022/03/18 11:17:00;;;;;;;23.92;16.60;;;;;;;;;;5075040;28;20058;-56
2022/03/18 11:19:48;;;;;;;23.27;19.52;;;;;;;;;;5077869;28;20032;-57
2022/03/18 11:22:30;;;;;;;22.27;16.50;;;;;;;;;;5083528;28;20095;-54
2022/03/18 11:25:40;;;;;;;20.33;18.13;;;;;;;;;;5053003;28;20481;-56
2022/03/18 11:28:47;;;;;;;26.75;21.33;;;;;;;;;;5029350;28;20090;-57
2022/03/18 11:34:55;;;;;;;32.22;21.92;;;;;;;;;;5052186;28;20032;-55
2022/03/18 11:50:06;;;;;;;24.60;17.77;;;;;;;;;;5052577;28;20071;-57
2022/03/18 11:52:47;;;;;;;;;;;;;;;;;;;;;
2022/03/18 11:55:34;;;;;;;24.55;18.95;;;;;;;;;;5060726;28;20032;-55
2022/03/18 11:58:22;;;;;;;31.85;21.67;;;;;;;;;;5095594;28;20024;-55
2022/03/18 12:01:30;;;;;;;28.73;19.58;;;;;;;;;;5094655;28;20385;-56
2022/03/18 12:04:38;;;;;;;26.70;17.85;;;;;;;;;;5094786;28;20515;-56
2022/03/18 12:07:31;;;;;;;23.83;17.33;;;;;;;;;;5042762;28;20541;-56
2022/03/18 12:10:19;;;;;;;27.70;20.65;;;;;;;;;;5076155;28;20039;-57
2022/03/18 12:13:26;;;;;;;;;;;;;;;;;;;;;
2022/03/18 12:21:57;;;;;;;25.13;19.98;;;;;;;;;;5092960;28;20028;-56
2022/03/18 12:30:38;;;;;;;26.95;18.85;;;;;;;;;;5093666;28;20043;-56
2022/03/18 12:33:12;;;;;;;26.60;20.05;;;;;;;;;;5093858;28;20027;-54
2022/03/18 12:41:58;;;;;;;28.40;21.23;;;;;;;;;;5091487;28;20113;-57
2022/03/18 12:44:46;;;;;;;32.92;21.48;;;;;;;;;;5066259;28;20370;-56
2022/03/18 12:47:19;;;;;;;27.42;20.98;;;;;;;;;;5077285;28;20036;-56
2022/03/18 12:53:25;;;;;;;25.27;22.33;;;;;;;;;;5058165;28;20028;-53
2022/03/18 12:56:02;;;;;;;28.55;23.77;;;;;;;;;;5075551;28;20470;-57
2022/03/18 13:02:38;;;;;;;27.92;19.52;;;;;;;;;;5073502;28;20101;-54
2022/03/18 13:05:26;;;;;;;;;;;;;;;;;;;;;
2022/03/18 13:08:40;;;;;;;25.92;19.52;;;;;;;;;;5027281;28;20045;-54
2022/03/18 13:11:21;;;;;;;28.25;19.67;;;;;;;;;;4989544;28;20026;-56
2022/03/18 13:14:10;;;;;;;27.30;18.33;;;;;;;;;;5000450;28;20038;-56
2022/03/18 13:16:45;;;;;;;31.25;20.23;;;;;;;;;;5069561;28;20036;-57
2022/03/18 13:25:51;;;;;;;27.48;21.55;;;;;;;;;;5097663;28;20038;-56
2022/03/18 13:28:39;;;;;;;26.38;19.10;;;;;;;;;;5076948;28;20079;-54
2022/03/18 13:34:30;;;;;;;24.73;19.13;;;;;;;;;;5097954;28;20488;-55
2022/03/18 13:40:48;;;;;;;23.92;17.95;;;;;;;;;;5097541;28;20031;-54
2022/03/18 13:43:55;;;;;;;;;;;;;;;;;;;;;
2022/03/18 13:46:49;;;;;;;;;;;;;;;;;;;;;
2022/03/18 13:52:49;;;;;;;22.70;18.55;;;;;;;;;;5063249;28;20044;-57
2022/03/18 13:55:46;;;;;;;22.02;18.60;;;;;;;;;;5097447;28;20016;-57
2022/03/18 13:58:27;;;;;;;20.95;15.30;;;;;;;;;;5096922;28;20464;-57
2022/03/18 14:01:34;;;;;;;20.50;18.08;;;;;;;;;;5097855;28;20028;-56
2022/03/18 14:07:17;;;;;;;17.15;13.38;;;;;;;;;;5050631;28;20025;-55
2022/03/18 14:13:06;;;;;;;20.23;17.08;;;;;;;;;;5053004;28;20029;-57
2022/03/18 14:15:52;;;;;;;20.30;15.48;;;;;;;;;;5055084;28;20064;-55
2022/03/18 14:18:35;;;;;;;;;;;;;;;;;;;;;
2022/03/18 14:21:15;;;;;;;;;;;;;;;;;;;;;
2022/03/18 14:23:51;;;;;;;23.77;16.50;;;;;;;;;;5051371;28;20566;-57
2022/03/18 14:29:45;;;;;;;;;;;;;;;;;;;;;
2022/03/18 14:38:38;;;;;;;18.50;16.08;;;;;;;;;;5072358;28;20123;-55
2022/03/18 14:41:17;;;;;;;19.30;15.05;;;;;;;;;;5096153;28;20107;-56
2022/03/18 14:43:48;;;;;;;22.23;13.38;;;;;;;;;;5078096;28;20033;-55
2022/03/18 14:49:45;;;;;;;20.38;15.70;;;;;;;;;;5100648;28;20470;-56
2022/03/18 14:52:46;;;;;;;18.67;15.00;;;;;;;;;;5077558;28;20543;-53
2022/03/18 14:58:32;;;;;;;18.42;14.57;;;;;;;;;;5095601;28;20085;-55
2022/03/18 15:04:35;;;;;;;;;;;;;;;;;;4987462;28;20083;-55
2022/03/18 15:07:10;;;;;;;20.63;16.15;;;;;;;;;;5033023;28;19940;-56
2022/03/18 15:09:45;;;;;;;20.27;16.70;;;;;;;;;;5032982;28;20117;-56
2022/03/18 15:12:26;;;;;;;18.65;14.70;;;;;;;;;;5032350;28;20042;-56
2022/03/18 15:18:20;;;;;;;18.15;15.35;;;;;;;;;;5002467;28;20029;-56
2022/03/18 15:20:46;;;;;;;23.75;17.17;;;;;;;;;;5015458;28;20403;-55
2022/03/18 15:23:31;;;;;;;20.35;16.88;;;;;;;;;;5032427;28;20041;-56
2022/03/18 15:30:03;;;;;;;21.63;15.23;;;;;;;;;;4983061;28;20046;-55
2022/03/18 15:32:39;;;;;;;17.02;15.15;;;;;;;;;;4914829;29;20475;-56
2022/03/18 15:35:44;;;;;;;22.52;18.67;;;;;;;;;;4914921;29;20047;-57
2022/03/18 15:38:19;;;;;;;21.67;16.90;;;;;;;;;;4933128;28;20065;-58
2022/03/18 15:41:03;;;;;;;22.98;17.10;;;;;;;;;;5095376;28;20553;-58
2022/03/18 15:44:13;;;;;;;23.58;16.75;;;;;;;;;;5095982;28;20016;-57
2022/03/18 15:47:01;;;;;;;22.93;17.13;;;;;;;;;;5095120;28;20024;-57
2022/03/18 15:49:41;;;;;;;23.02;17.30;;;;;;;;;;5094233;28;20349;-57
2022/03/18 15:55:28;;;;;;;22.50;16.90;;;;;;;;;;5094720;28;19912;-58
2022/03/18 15:58:08;;;;;;;20.05;15.68;;;;;;;;;;5072919;28;20029;-57
2022/03/18 16:07:13;;;;;;;19.90;16.23;;;;;;;;;;5062691;28;20112;-55
2022/03/18 16:09:57;;;;;;;22.73;17.85;;;;;;;;;;5093943;28;20036;-57
2022/03/18 16:15:37;;;;;;;22.58;17.55;;;;;;;;;;5088270;28;20338;-57
2022/03/18 16:18:38;;;;;;;22.08;16.55;;;;;;;;;;5074033;28;20027;-58
2022/03/18 16:27:34;;;;;;;21.38;17.23;;;;;;;;;;5094290;28;20032;-57
2022/03/18 16:38:40;;;;;;;22.67;17.15;;;;;;;;;;5062247;28;20342;-57
2022/03/18 16:41:44;;;;;;;18.45;14.57;;;;;;;;;;5075645;28;20028;-57
2022/03/18 16:44:44;;;;;;;;;;;;;;;;;;;;;
2022/03/18 16:50:47;;;;;;;23.95;17.75;;;;;;;;;;5098768;28;20135;-57
2022/03/18 16:53:56;;;;;;;22.63;16.42;;;;;;;;;;5047387;28;20040;-57
2022/03/18 16:56:40;;;;;;;25.30;16.75;;;;;;;;;;5071151;28;20074;-57
2022/03/18 16:59:49;;;;;;;22.48;19.73;;;;;;;;;;5055612;28;20037;-57
2022/03/18 17:02:50;;;;;;;25.17;19.40;;;;;;;;;;5039210;28;20501;-57
2022/03/18 17:05:16;;;;;;;25.15;18.98;;;;;;;;;;5044804;28;20482;-57
2022/03/18 17:08:03;;;;;;;23.65;16.73;;;;;;;;;;5039261;28;20028;-57
2022/03/18 17:10:44;;;;;;;28.60;19.08;;;;;;;;;;5044262;28;20067;-57
2022/03/18 17:13:25;;;;;;;26.88;19.98;;;;;;;;;;5055706;28;20124;-57
2022/03/18 17:16:29;;;;;;;27.92;18.58;;;;;;;;;;5055389;28;20032;-57
2022/03/18 17:19:07;;;;;;;22.00;17.02;;;;;;;;;;5054420;28;20137;-58
2022/03/18 17:21:55;;;;;;;21.55;18.83;;;;;;;;;;5037531;28;20132;-58
2022/03/18 17:30:44;;;;;;;24.13;19.40;;;;;;;;;;5071179;28;20106;-58
2022/03/18 17:33:22;;;;;;;22.52;19.25;;;;;;;;;;5078499;28;20039;-58
2022/03/18 17:36:11;;;;;;;29.50;20.60;;;;;;;;;;5089838;28;20110;-59
2022/03/18 17:42:43;;;;;;;25.25;18.23;;;;;;;;;;5034024;28;20037;-58
2022/03/18 17:45:41;;;;;;;25.17;20.92;;;;;;;;;;5033809;28;20024;-59
2022/03/18 17:48:32;;;;;;;23.15;19.38;;;;;;;;;;5088729;28;20043;-59
2022/03/18 17:54:24;;;;;;;29.70;21.33;;;;;;;;;;5087920;28;20036;-58
2022/03/18 17:57:02;;;;;;;26.15;17.85;;;;;;;;;;5078647;28;20028;-58
2022/03/18 18:03:13;;;;;;;;;;;;;;;;;;;;;
2022/03/18 18:06:05;;;;;;;;;;;;;;;;;;;;;
2022/03/18 18:08:49;;;;;;;26.75;21.15;;;;;;;;;;5051333;28;20040;-58
2022/03/18 18:11:25;;;;;;;33.15;22.35;;;;;;;;;;5054084;28;20087;-58
2022/03/18 18:14:13;;;;;;;29.17;21.42;;;;;;;;;;5067679;28;20055;-58
2022/03/18 18:17:09;;;;;;;27.77;22.67;;;;;;;;;;5078302;28;20089;-58
2022/03/18 18:26:17;;;;;;;26.92;19.92;;;;;;;;;;5087646;28;20024;-58
2022/03/18 18:29:15;;;;;;;26.50;20.08;;;;;;;;;;5078365;28;20493;-58
2022/03/18 18:38:40;;;;;;;26.27;19.88;;;;;;;;;;5051145;28;20035;-58
2022/03/18 18:41:17;;;;;;;30.65;23.30;;;;;;;;;;5078480;28;20481;-58
2022/03/18 18:44:17;;;;;;;28.63;22.50;;;;;;;;;;5077472;28;20486;-58
2022/03/18 18:47:09;;;;;;;27.45;21.45;;;;;;;;;;5077720;28;20493;-58
2022/03/18 18:50:26;;;;;;;34.20;21.83;;;;;;;;;;5094549;28;20385;-58
2022/03/18 18:53:22;;;;;;;;;;;;;;;;;;;;;
2022/03/18 18:59:12;;;;;;;;;;;;;;;;;;;;;
2022/03/18 19:01:54;;;;;;;29.83;23.30;;;;;;;;;;5091180;28;20115;-58
2022/03/18 19:07:52;;;;;;;29.48;22.50;;;;;;;;;;5069422;28;20419;-58
2022/03/18 19:10:27;;;;;;;34.22;24.77;;;;;;;;;;5073270;28;20029;-58
2022/03/18 19:16:13;;;;;;;30.75;24.35;;;;;;;;;;5073278;28;20027;-58
2022/03/18 19:18:43;;;;;;;30.55;24.45;;;;;;;;;;5072074;28;20027;-58
2022/03/18 19:21:19;;;;;;;29.63;24.35;;;;;;;;;;5052066;28;20080;-59
2022/03/18 19:23:59;;;;;;;31.67;23.27;;;;;;;;;;5056279;28;20406;-58
2022/03/18 19:29:59;;;;;;;28.50;20.08;;;;;;;;;;5076490;28;20079;-58
2022/03/18 19:32:41;;;;;;;41.00;27.08;;;;;;;;;;5068640;28;20115;-58
2022/03/18 19:35:16;;;;;;;35.80;27.02;;;;;;;;;;5032413;28;20076;-58
2022/03/18 19:38:02;;;;;;;31.92;24.05;;;;;;;;;;4999090;28;20363;-58
2022/03/18 19:40:47;;;;;;;;;;;;;;;;;;;;;
2022/03/18 19:43:22;;;;;;;30.17;25.92;;;;;;;;;;4992375;28;20435;-58
2022/03/18 19:46:05;;;;;;;32.83;27.02;;;;;;;;;;4992111;28;20045;-58
2022/03/18 19:52:51;;;;;;;40.33;28.30;;;;;;;;;;4983110;28;20042;-58
2022/03/18 19:55:04;;;;;;;35.17;28.45;;;;;;;;;;4987650;28;20066;-58
2022/03/18 20:03:29;;;;;;;44.17;28.38;;;;;;;;;;4992209;28;20141;-58
2022/03/18 20:06:33;;;;;;;35.58;27.77;;;;;;;;;;5008654;28;20594;-58
2022/03/18 20:12:38;;;;;;;35.47;27.67;;;;;;;;;;5081260;28;20482;-58
2022/03/18 20:15:30;;;;;;;36.67;28.33;;;;;;;;;;5082175;28;20377;-58
2022/03/18 20:23:52;;;;;;;37.90;26.00;;;;;;;;;;5093579;28;20015;-58
2022/03/18 20:29:46;;;;;;;35.88;28.17;;;;;;;;;;5094118;28;20142;-58
2022/03/18 20:32:21;;;;;;;36.22;27.38;;;;;;;;;;5075601;28;20478;-58
2022/03/18 20:35:14;;;;;;;36.17;29.30;;;;;;;;;;5095027;28;20053;-58
2022/03/18 20:40:32;;;;;;;37.92;29.80;;;;;;;;;;5093640;28;20050;-58
2022/03/18 20:43:21;;;;;;;;;;;;;;;;;;;;;
2022/03/18 20:45:59;;;;;;;41.13;30.73;;;;;;;;;;5094205;28;20107;-58
2022/03/18 20:48:51;;;;;;;37.40;29.42;;;;;;;;;;5094354;28;20093;-58
2022/03/18 20:51:31;;;;;;;39.75;29.63;;;;;;;;;;5050966;28;20123;-58
2022/03/18 20:54:08;;;;;;;40.08;29.58;;;;;;;;;;5049425;28;20128;-58
2022/03/18 20:57:02;;;;;;;38.03;29.88;;;;;;;;;;5085422;28;20032;-58
2022/03/18 20:59:33;;;;;;;41.45;30.20;;;;;;;;;;5092396;28;20461;-58
2022/03/18 21:02:13;;;;;;;39.75;28.63;;;;;;;;;;5099967;28;20058;-58
2022/03/18 21:04:49;;;;;;;40.10;28.90;;;;;;;;;;5105238;28;20044;-59
2022/03/18 21:07:42;;;;;;;33.30;29.00;;;;;;;;;;5105783;28;20024;-58
2022/03/18 21:10:37;;;;;;;31.55;25.70;;;;;;;;;;5103260;28;20061;-58
2022/03/18 21:13:26;;;;;;;38.47;29.13;;;;;;;;;;5105561;28;20035;-59
2022/03/18 21:19:05;;;;;;;35.33;28.92;;;;;;;;;;5022221;28;20045;-59
2022/03/18 21:25:00;;;;;;;34.90;29.38;;;;;;;;;;5084310;28;20066;-59
2022/03/18 21:33:40;;;;;;;20.98;16.83;;;;;;;;;;4948855;29;20036;-59
2022/03/18 21:36:18;;;;;;;39.28;30.98;;;;;;;;;;4930354;29;20047;-59
2022/03/18 21:47:51;;;;;;;43.35;29.92;;;;;;;;;;4910588;29;20040;-59
2022/03/18 21:50:49;;;;;;;39.92;30.95;;;;;;;;;;4911243;29;20076;-59
2022/03/18 21:53:37;;;;;;;38.80;29.45;;;;;;;;;;4934333;29;20074;-59
2022/03/18 21:59:29;;;;;;;45.80;33.00;;;;;;;;;;4967345;29;20445;-59
2022/03/18 22:05:48;;;;;;;;;;;;;;;;;;;;;
2022/03/18 22:08:28;;;;;;;49.15;32.03;;;;;;;;;;4910034;29;20044;-59
2022/03/18 22:11:13;;;;;;;47.30;33.85;;;;;;;;;;4912212;29;20037;-59
2022/03/18 22:13:54;;;;;;;41.15;31.48;;;;;;;;;;4943739;29;20113;-59
2022/03/18 22:16:26;;;;;;;52.72;35.55;;;;;;;;;;5002366;28;20067;-59
2022/03/18 22:19:44;;;;;;;50.40;34.05;;;;;;;;;;5050132;28;20021;-59
2022/03/18 22:22:37;;;;;;;49.53;30.55;;;;;;;;;;5006861;28;20581;-59
2022/03/18 22:25:05;;;;;;;40.45;31.20;;;;;;;;;;4999960;28;20050;-59
2022/03/18 22:30:44;;;;;;;44.05;32.78;;;;;;;;;;5002992;28;20030;-59
2022/03/18 22:39:39;;;;;;;25.13;20.20;;;;;;;;;;4949832;29;20167;-59
2022/03/18 22:42:27;;;;;;;54.67;37.55;;;;;;;;;;4949571;29;20516;-59
2022/03/18 22:45:14;;;;;;;47.13;33.95;;;;;;;;;;4960538;28;20148;-59
2022/03/18 22:54:02;;;;;;;50.03;33.95;;;;;;;;;;5046641;28;20042;-59
2022/03/18 22:56:37;;;;;;;52.60;37.53;;;;;;;;;;5047633;28;20025;-59
2022/03/18 22:59:35;;;;;;;55.83;38.10;;;;;;;;;;5046875;28;20038;-59
2022/03/18 23:02:23;;;;;;;46.92;35.47;;;;;;;;;;5046743;28;20049;-59
2022/03/18 23:08:34;;;;;;;57.08;36.33;;;;;;;;;;5025962;28;20037;-59
2022/03/18 23:13:52;;;;;;;52.08;35.72;;;;;;;;;;5108881;28;20370;-59
2022/03/18 23:20:01;;;;;;;58.10;36.83;;;;;;;;;;5101417;28;20160;-59
2022/03/18 23:28:23;;;;;;;48.50;37.08;;;;;;;;;;5108599;28;20054;-59
2022/03/18 23:31:41;;;;;;;52.15;36.75;;;;;;;;;;5108352;28;20024;-59
2022/03/18 23:34:11;;;;;;;50.53;39.30;;;;;;;;;;5108552;28;20020;-59
2022/03/18 23:36:47;;;;;;;47.17;30.20;;;;;;;;;;5108737;28;20016;-59
2022/03/18 23:39:34;;;;;;;52.90;37.42;;;;;;;;;;5108057;28;20039;-59
2022/03/18 23:45:05;;;;;;;53.22;36.38;;;;;;;;;;5090094;28;20083;-59
2022/03/18 23:51:17;;;;;;;49.67;37.10;;;;;;;;;;5108282;28;20032;-59
2022/03/18 23:54:24;;;;;;;56.13;38.40;;;;;;;;;;5107768;28;20073;-59
2022/03/18 23:57:09;;;;;;;50.72;36.53;;;;;;;;;;5043905;28;20123;-59
